TRA87X EHAM-LGIR
Flight info
| Callsign | TRA87X |
|---|---|
| Flight time | N/A |
| Altitude | 35000 |
| Route | EDUPO Z739 MISGO DCT DOJOH DCT DODEN DCT NEGIX DCT DINKU M867 XERUM DCT BAVAX DCT RADIZ DCT NIPEL DCT ABISO DCT NEMEK DCT RETRA DCT PINDO UL607 GIVIS T514 XAVIS |
| Aircraft | B738/M-SDE2E3FGHIJ1P2RWXY/LB1 |
Departure
| Time | N/A |
|---|---|
| Airport | Amsterdam Airport Schiphol (EHAM) |
Arrival
| Time | 2026-05-06 19:13 |
|---|---|
| Airport | Heraklion International Nikos Kazantzakis Airport (LGIR) |
| Time | Latitude | Longitude | Altitude | Speed | Heading |
|---|---|---|---|---|---|
| 2026-05-06 17:42 | 43.75732 | 17.56748 | 35021 ft | 471 kts | 145° |
| 2026-05-06 17:43 | 43.70768 | 17.62677 | 35032 ft | 471 kts | 145° |
| 2026-05-06 17:43 | 43.65802 | 17.68594 | 35025 ft | 472 kts | 145° |
| 2026-05-06 17:44 | 43.60836 | 17.74499 | 35024 ft | 470 kts | 145° |
| 2026-05-06 17:44 | 43.55861 | 17.80399 | 35044 ft | 472 kts | 144° |
| 2026-05-06 17:45 | 43.50856 | 17.86321 | 35052 ft | 476 kts | 144° |
| 2026-05-06 17:45 | 43.45837 | 17.92246 | 35051 ft | 479 kts | 144° |
| 2026-05-06 17:46 | 43.40999 | 17.97948 | 35044 ft | 481 kts | 144° |
| 2026-05-06 17:46 | 43.35911 | 18.03931 | 35052 ft | 481 kts | 144° |
| 2026-05-06 17:47 | 43.30831 | 18.09890 | 35046 ft | 480 kts | 145° |
| 2026-05-06 17:47 | 43.25749 | 18.15839 | 35049 ft | 479 kts | 145° |
| 2026-05-06 17:48 | 43.20682 | 18.21755 | 35045 ft | 478 kts | 145° |
| 2026-05-06 17:48 | 43.15650 | 18.27617 | 35045 ft | 477 kts | 145° |
| 2026-05-06 17:49 | 43.10598 | 18.33488 | 35031 ft | 476 kts | 145° |
| 2026-05-06 17:49 | 43.07841 | 18.36687 | 35043 ft | 477 kts | 145° |
| 2026-05-06 17:50 | 43.02774 | 18.42555 | 35051 ft | 478 kts | 145° |
| 2026-05-06 17:50 | 42.97702 | 18.48417 | 35067 ft | 478 kts | 144° |
| 2026-05-06 17:51 | 42.92615 | 18.54283 | 35057 ft | 478 kts | 144° |
| 2026-05-06 17:51 | 42.87529 | 18.60135 | 35049 ft | 479 kts | 145° |
| 2026-05-06 17:52 | 42.82429 | 18.65989 | 35068 ft | 479 kts | 145° |
| 2026-05-06 17:52 | 42.77316 | 18.71846 | 35073 ft | 480 kts | 145° |
| 2026-05-06 17:53 | 42.72194 | 18.77699 | 35077 ft | 482 kts | 145° |
| 2026-05-06 17:53 | 42.67058 | 18.83555 | 35068 ft | 481 kts | 144° |
| 2026-05-06 17:54 | 42.61935 | 18.89387 | 35056 ft | 480 kts | 144° |
| 2026-05-06 17:54 | 42.56813 | 18.95202 | 35078 ft | 481 kts | 144° |
| 2026-05-06 17:55 | 42.51676 | 19.01020 | 35077 ft | 481 kts | 144° |
| 2026-05-06 17:55 | 42.46530 | 19.06836 | 35078 ft | 482 kts | 144° |
| 2026-05-06 17:56 | 42.41364 | 19.12663 | 35078 ft | 483 kts | 144° |
| 2026-05-06 17:56 | 42.36224 | 19.18446 | 35068 ft | 483 kts | 144° |
| 2026-05-06 17:57 | 42.31057 | 19.24250 | 35079 ft | 484 kts | 144° |
| 2026-05-06 17:57 | 42.25876 | 19.30058 | 35076 ft | 484 kts | 144° |
| 2026-05-06 17:58 | 42.20621 | 19.35741 | 35075 ft | 482 kts | 148° |
| 2026-05-06 17:58 | 42.15152 | 19.40984 | 35067 ft | 482 kts | 149° |
| 2026-05-06 17:59 | 42.09621 | 19.46158 | 35076 ft | 484 kts | 149° |
| 2026-05-06 17:59 | 42.04110 | 19.51357 | 35078 ft | 484 kts | 148° |
| 2026-05-06 18:00 | 41.98605 | 19.56586 | 35076 ft | 483 kts | 148° |
| 2026-05-06 18:00 | 41.93145 | 19.61776 | 35078 ft | 481 kts | 148° |
| 2026-05-06 18:01 | 41.87683 | 19.66954 | 35071 ft | 481 kts | 148° |
| 2026-05-06 18:01 | 41.82199 | 19.72139 | 35098 ft | 483 kts | 148° |
| 2026-05-06 18:02 | 41.76693 | 19.77332 | 35076 ft | 485 kts | 148° |
| 2026-05-06 18:02 | 41.71197 | 19.82505 | 35095 ft | 486 kts | 148° |
| 2026-05-06 18:03 | 41.65660 | 19.87707 | 35055 ft | 487 kts | 148° |
| 2026-05-06 18:03 | 41.60115 | 19.92905 | 35076 ft | 487 kts | 148° |
| 2026-05-06 18:04 | 41.54562 | 19.98099 | 35075 ft | 487 kts | 148° |
| 2026-05-06 18:04 | 41.49000 | 20.03291 | 35083 ft | 487 kts | 148° |
| 2026-05-06 18:05 | 41.43438 | 20.08470 | 35067 ft | 488 kts | 148° |
| 2026-05-06 18:05 | 41.37888 | 20.13628 | 35069 ft | 489 kts | 148° |
| 2026-05-06 18:06 | 41.32317 | 20.18795 | 35069 ft | 488 kts | 148° |
| 2026-05-06 18:06 | 41.26741 | 20.23957 | 35069 ft | 487 kts | 148° |
| 2026-05-06 18:07 | 41.21177 | 20.29095 | 35067 ft | 485 kts | 148° |
| 2026-05-06 18:07 | 41.15635 | 20.34202 | 35052 ft | 484 kts | 148° |
| 2026-05-06 18:08 | 41.10147 | 20.39249 | 35070 ft | 482 kts | 148° |
| 2026-05-06 18:08 | 41.04626 | 20.44315 | 35067 ft | 482 kts | 148° |
| 2026-05-06 18:09 | 40.99115 | 20.49363 | 35084 ft | 481 kts | 148° |
| 2026-05-06 18:09 | 40.93604 | 20.54399 | 35075 ft | 482 kts | 148° |
| 2026-05-06 18:10 | 40.88081 | 20.59436 | 35070 ft | 483 kts | 148° |
| 2026-05-06 18:10 | 40.82546 | 20.64473 | 35059 ft | 482 kts | 148° |
| 2026-05-06 18:11 | 40.77009 | 20.69503 | 35068 ft | 483 kts | 148° |
| 2026-05-06 18:11 | 40.71505 | 20.74492 | 35053 ft | 483 kts | 148° |
| 2026-05-06 18:12 | 40.65963 | 20.79505 | 35056 ft | 483 kts | 148° |
| 2026-05-06 18:12 | 40.60418 | 20.84511 | 35065 ft | 485 kts | 148° |
| 2026-05-06 18:13 | 40.55454 | 20.88986 | 35063 ft | 484 kts | 148° |
| 2026-05-06 18:13 | 40.49888 | 20.93992 | 35066 ft | 484 kts | 148° |
| 2026-05-06 18:14 | 40.44541 | 20.99420 | 35067 ft | 487 kts | 140° |
| 2026-05-06 18:14 | 40.39494 | 21.05362 | 35058 ft | 487 kts | 139° |
| 2026-05-06 18:15 | 40.34456 | 21.11301 | 35058 ft | 487 kts | 140° |
| 2026-05-06 18:15 | 40.29372 | 21.17182 | 35068 ft | 486 kts | 140° |
| 2026-05-06 18:16 | 40.24287 | 21.23009 | 35056 ft | 486 kts | 140° |
| 2026-05-06 18:16 | 40.19203 | 21.28820 | 35050 ft | 485 kts | 140° |
| 2026-05-06 18:17 | 40.14118 | 21.34625 | 35046 ft | 484 kts | 140° |
| 2026-05-06 18:17 | 40.09046 | 21.40406 | 35045 ft | 483 kts | 140° |
| 2026-05-06 18:18 | 40.03991 | 21.46157 | 35047 ft | 482 kts | 140° |
| 2026-05-06 18:18 | 39.98926 | 21.51908 | 35045 ft | 481 kts | 140° |
| 2026-05-06 18:19 | 39.94577 | 21.56834 | 35039 ft | 481 kts | 140° |
| 2026-05-06 18:19 | 39.89517 | 21.62547 | 35041 ft | 480 kts | 140° |
| 2026-05-06 18:20 | 39.84456 | 21.68251 | 35047 ft | 480 kts | 140° |
| 2026-05-06 18:20 | 39.79432 | 21.73903 | 35048 ft | 481 kts | 140° |
| 2026-05-06 18:21 | 39.74371 | 21.79589 | 35050 ft | 481 kts | 140° |
| 2026-05-06 18:21 | 39.69303 | 21.85271 | 35037 ft | 481 kts | 140° |
| 2026-05-06 18:22 | 39.64236 | 21.90939 | 35030 ft | 480 kts | 140° |
| 2026-05-06 18:22 | 39.59175 | 21.96589 | 35026 ft | 480 kts | 140° |
| 2026-05-06 18:23 | 39.54109 | 22.02234 | 35033 ft | 479 kts | 140° |
| 2026-05-06 18:23 | 39.49064 | 22.07844 | 35033 ft | 479 kts | 140° |
| 2026-05-06 18:24 | 39.44036 | 22.13425 | 35031 ft | 479 kts | 141° |
| 2026-05-06 18:24 | 39.38970 | 22.19036 | 35033 ft | 479 kts | 141° |
| 2026-05-06 18:25 | 39.33910 | 22.24630 | 35029 ft | 479 kts | 141° |
| 2026-05-06 18:25 | 39.28837 | 22.30227 | 35032 ft | 479 kts | 141° |
| 2026-05-06 18:26 | 39.23768 | 22.35807 | 35040 ft | 479 kts | 141° |
| 2026-05-06 18:26 | 39.18685 | 22.41394 | 35041 ft | 479 kts | 141° |
| 2026-05-06 18:27 | 39.13606 | 22.46964 | 35043 ft | 479 kts | 141° |
| 2026-05-06 18:27 | 39.08529 | 22.52522 | 35035 ft | 479 kts | 141° |
| 2026-05-06 18:28 | 39.03450 | 22.58070 | 35044 ft | 479 kts | 141° |
| 2026-05-06 18:28 | 38.98369 | 22.63610 | 35037 ft | 479 kts | 141° |
| 2026-05-06 18:29 | 38.94141 | 22.68213 | 35038 ft | 479 kts | 141° |
| 2026-05-06 18:29 | 38.89055 | 22.73738 | 35047 ft | 479 kts | 141° |
| 2026-05-06 18:30 | 38.84569 | 22.78602 | 35053 ft | 479 kts | 141° |
| 2026-05-06 18:30 | 38.79476 | 22.84115 | 35050 ft | 479 kts | 141° |
| 2026-05-06 18:31 | 38.74382 | 22.89619 | 35061 ft | 480 kts | 141° |
| 2026-05-06 18:31 | 38.69264 | 22.95138 | 35052 ft | 481 kts | 141° |
| 2026-05-06 18:32 | 38.64151 | 23.00641 | 35053 ft | 481 kts | 141° |
| 2026-05-06 18:32 | 38.59047 | 23.06123 | 35057 ft | 481 kts | 141° |
| 2026-05-06 18:33 | 38.53913 | 23.11628 | 35052 ft | 482 kts | 141° |
| 2026-05-06 18:33 | 38.48810 | 23.17171 | 35050 ft | 482 kts | 139° |
| 2026-05-06 18:34 | 38.43963 | 23.23085 | 35054 ft | 482 kts | 136° |
| 2026-05-06 18:34 | 38.39189 | 23.29095 | 35056 ft | 482 kts | 136° |
| 2026-05-06 18:35 | 38.34382 | 23.35063 | 35060 ft | 481 kts | 137° |
| 2026-05-06 18:35 | 38.29555 | 23.40979 | 35062 ft | 481 kts | 137° |
| 2026-05-06 18:36 | 38.24715 | 23.46880 | 35065 ft | 481 kts | 137° |
| 2026-05-06 18:36 | 38.19907 | 23.52733 | 35075 ft | 481 kts | 137° |
| 2026-05-06 18:37 | 38.15073 | 23.58610 | 35077 ft | 481 kts | 137° |
| 2026-05-06 18:37 | 38.10232 | 23.64485 | 35073 ft | 481 kts | 137° |
| 2026-05-06 18:38 | 38.05384 | 23.70357 | 35073 ft | 481 kts | 137° |
| 2026-05-06 18:38 | 38.00535 | 23.76219 | 35082 ft | 481 kts | 137° |
| 2026-05-06 18:39 | 37.95681 | 23.82075 | 35088 ft | 481 kts | 137° |
| 2026-05-06 18:40 | 37.88399 | 23.90840 | 35073 ft | 481 kts | 137° |
| 2026-05-06 18:40 | 37.83542 | 23.96673 | 35078 ft | 481 kts | 137° |
| 2026-05-06 18:41 | 37.78678 | 24.02503 | 35084 ft | 482 kts | 137° |
| 2026-05-06 18:41 | 37.73838 | 24.08292 | 35076 ft | 482 kts | 137° |
| 2026-05-06 18:42 | 37.68959 | 24.14119 | 35062 ft | 482 kts | 137° |
| 2026-05-06 18:42 | 37.64081 | 24.19933 | 35082 ft | 482 kts | 137° |
| 2026-05-06 18:43 | 37.59198 | 24.25744 | 35082 ft | 482 kts | 137° |
| 2026-05-06 18:43 | 37.54143 | 24.31298 | 35067 ft | 481 kts | 148° |
| 2026-05-06 18:44 | 37.48475 | 24.35742 | 35084 ft | 480 kts | 150° |
| 2026-05-06 18:44 | 37.42796 | 24.40080 | 35084 ft | 480 kts | 150° |
| 2026-05-06 18:45 | 37.37096 | 24.44499 | 35086 ft | 481 kts | 150° |
| 2026-05-06 18:45 | 37.31481 | 24.48889 | 35087 ft | 481 kts | 150° |
| 2026-05-06 18:46 | 37.25798 | 24.53334 | 35081 ft | 482 kts | 150° |
| 2026-05-06 18:46 | 37.20103 | 24.57777 | 35074 ft | 482 kts | 150° |
| 2026-05-06 18:47 | 37.14405 | 24.62212 | 35078 ft | 482 kts | 150° |
| 2026-05-06 18:47 | 37.11545 | 24.64434 | 34750 ft | 487 kts | 150° |
| 2026-05-06 18:47 | 37.08665 | 24.66671 | 34162 ft | 486 kts | 150° |
| 2026-05-06 18:47 | 37.05794 | 24.68898 | 33471 ft | 484 kts | 150° |
| 2026-05-06 18:48 | 37.02928 | 24.71120 | 32784 ft | 483 kts | 149° |
| 2026-05-06 18:48 | 37.00077 | 24.73329 | 32171 ft | 480 kts | 149° |
| 2026-05-06 18:48 | 36.97260 | 24.75511 | 31723 ft | 474 kts | 149° |
| 2026-05-06 18:48 | 36.94473 | 24.77666 | 31245 ft | 468 kts | 149° |
| 2026-05-06 18:49 | 36.91716 | 24.79796 | 30780 ft | 463 kts | 149° |
| 2026-05-06 18:49 | 36.88989 | 24.81909 | 30321 ft | 459 kts | 149° |
| 2026-05-06 18:49 | 36.86292 | 24.84004 | 29806 ft | 454 kts | 149° |
| 2026-05-06 18:49 | 36.83617 | 24.86082 | 29293 ft | 449 kts | 149° |
| 2026-05-06 18:50 | 36.80981 | 24.88129 | 28827 ft | 444 kts | 149° |
| 2026-05-06 18:50 | 36.78397 | 24.90133 | 28361 ft | 439 kts | 149° |
| 2026-05-06 18:50 | 36.75822 | 24.92128 | 27897 ft | 434 kts | 149° |
| 2026-05-06 18:50 | 36.73265 | 24.94107 | 27436 ft | 430 kts | 149° |
| 2026-05-06 18:51 | 36.70731 | 24.96065 | 26986 ft | 426 kts | 149° |
| 2026-05-06 18:51 | 36.68211 | 24.98006 | 26537 ft | 422 kts | 149° |
| 2026-05-06 18:51 | 36.65716 | 24.99917 | 26095 ft | 420 kts | 149° |
| 2026-05-06 18:51 | 36.63234 | 25.01815 | 25659 ft | 418 kts | 149° |
| 2026-05-06 18:52 | 36.60751 | 25.03711 | 25213 ft | 421 kts | 149° |
| 2026-05-06 18:52 | 36.58247 | 25.05623 | 24761 ft | 431 kts | 149° |
| 2026-05-06 18:52 | 36.55685 | 25.07579 | 24294 ft | 431 kts | 148° |
| 2026-05-06 18:52 | 36.53180 | 25.09491 | 23844 ft | 427 kts | 148° |
| 2026-05-06 18:53 | 36.50622 | 25.11442 | 23309 ft | 424 kts | 148° |
| 2026-05-06 18:53 | 36.48152 | 25.13325 | 22819 ft | 419 kts | 148° |
| 2026-05-06 18:53 | 36.45681 | 25.15208 | 22339 ft | 415 kts | 148° |
| 2026-05-06 18:53 | 36.43230 | 25.17074 | 21887 ft | 410 kts | 149° |
| 2026-05-06 18:54 | 36.40805 | 25.18918 | 21444 ft | 406 kts | 149° |
| 2026-05-06 18:54 | 36.38405 | 25.20742 | 21007 ft | 402 kts | 149° |
| 2026-05-06 18:54 | 36.36025 | 25.22549 | 20574 ft | 399 kts | 149° |
| 2026-05-06 18:54 | 36.33660 | 25.24344 | 20139 ft | 396 kts | 149° |
| 2026-05-06 18:55 | 36.31321 | 25.26119 | 19718 ft | 393 kts | 149° |
| 2026-05-06 18:55 | 36.28999 | 25.27878 | 19295 ft | 390 kts | 149° |
| 2026-05-06 18:55 | 36.26696 | 25.29622 | 18868 ft | 388 kts | 149° |
| 2026-05-06 18:55 | 36.24394 | 25.31364 | 18430 ft | 386 kts | 149° |
| 2026-05-06 18:56 | 36.22105 | 25.33096 | 17965 ft | 384 kts | 149° |
| 2026-05-06 18:56 | 36.19836 | 25.34811 | 17507 ft | 381 kts | 149° |
| 2026-05-06 18:56 | 36.17585 | 25.36512 | 17082 ft | 378 kts | 149° |
| 2026-05-06 18:56 | 36.15349 | 25.38199 | 16666 ft | 374 kts | 149° |
| 2026-05-06 18:57 | 36.13125 | 25.39866 | 16255 ft | 371 kts | 150° |
| 2026-05-06 18:57 | 36.10799 | 25.41208 | 15845 ft | 367 kts | 162° |
| 2026-05-06 18:57 | 36.08392 | 25.42193 | 15460 ft | 363 kts | 163° |
| 2026-05-06 18:57 | 36.06020 | 25.43120 | 15057 ft | 360 kts | 163° |
| 2026-05-06 18:58 | 36.03639 | 25.44047 | 14666 ft | 357 kts | 163° |
| 2026-05-06 18:58 | 36.01276 | 25.44975 | 14277 ft | 355 kts | 163° |
| 2026-05-06 18:58 | 35.98931 | 25.45905 | 13889 ft | 353 kts | 163° |
| 2026-05-06 18:58 | 35.96603 | 25.46834 | 13458 ft | 350 kts | 163° |
| 2026-05-06 18:59 | 35.94298 | 25.47757 | 13039 ft | 347 kts | 162° |
| 2026-05-06 18:59 | 35.92004 | 25.48678 | 12629 ft | 344 kts | 162° |
| 2026-05-06 18:59 | 35.89733 | 25.49590 | 12236 ft | 341 kts | 162° |
| 2026-05-06 18:59 | 35.87484 | 25.50493 | 11849 ft | 339 kts | 162° |
| 2026-05-06 19:00 | 35.85255 | 25.51388 | 11466 ft | 336 kts | 162° |
| 2026-05-06 19:00 | 35.83038 | 25.52277 | 11086 ft | 333 kts | 162° |
| 2026-05-06 19:00 | 35.80841 | 25.53158 | 10705 ft | 331 kts | 162° |
| 2026-05-06 19:00 | 35.79400 | 25.53736 | 10570 ft | 325 kts | 162° |
| 2026-05-06 19:01 | 35.76577 | 25.54868 | 10373 ft | 313 kts | 162° |
| 2026-05-06 19:01 | 35.74559 | 25.55676 | 10236 ft | 304 kts | 162° |
| 2026-05-06 19:01 | 35.72575 | 25.56469 | 10092 ft | 296 kts | 162° |
| 2026-05-06 19:01 | 35.70618 | 25.57251 | 9780 ft | 294 kts | 162° |
| 2026-05-06 19:02 | 35.68772 | 25.58285 | 9449 ft | 292 kts | 143° |
| 2026-05-06 19:02 | 35.67211 | 25.59856 | 9174 ft | 288 kts | 139° |
| 2026-05-06 19:02 | 35.65666 | 25.61428 | 8870 ft | 287 kts | 140° |
| 2026-05-06 19:02 | 35.64118 | 25.62969 | 8575 ft | 285 kts | 140° |
| 2026-05-06 19:03 | 35.62571 | 25.64494 | 8284 ft | 284 kts | 140° |
| 2026-05-06 19:03 | 35.60876 | 25.65693 | 7951 ft | 285 kts | 167° |
| 2026-05-06 19:03 | 35.58941 | 25.65571 | 7678 ft | 280 kts | 203° |
| 2026-05-06 19:03 | 35.57448 | 25.64150 | 7417 ft | 271 kts | 239° |
| 2026-05-06 19:04 | 35.56842 | 25.62828 | 7293 ft | 266 kts | 245° |
| 2026-05-06 19:04 | 35.55879 | 25.60696 | 6915 ft | 273 kts | 233° |
| 2026-05-06 19:04 | 35.54357 | 25.59200 | 6411 ft | 281 kts | 212° |
| 2026-05-06 19:04 | 35.52724 | 25.57990 | 6244 ft | 264 kts | 212° |
| 2026-05-06 19:05 | 35.51219 | 25.56858 | 6102 ft | 243 kts | 213° |
| 2026-05-06 19:05 | 35.49851 | 25.55809 | 5961 ft | 226 kts | 214° |
| 2026-05-06 19:05 | 35.48549 | 25.54795 | 5732 ft | 215 kts | 214° |
| 2026-05-06 19:05 | 35.47303 | 25.53815 | 5363 ft | 211 kts | 214° |
| 2026-05-06 19:06 | 35.46095 | 25.52860 | 4992 ft | 208 kts | 214° |
| 2026-05-06 19:06 | 35.44902 | 25.51915 | 4770 ft | 199 kts | 214° |
| 2026-05-06 19:06 | 35.43766 | 25.51012 | 4621 ft | 189 kts | 215° |
| 2026-05-06 19:06 | 35.42665 | 25.50134 | 4543 ft | 188 kts | 215° |
| 2026-05-06 19:07 | 35.41572 | 25.49262 | 4463 ft | 187 kts | 215° |
| 2026-05-06 19:07 | 35.40848 | 25.48684 | 4362 ft | 189 kts | 215° |
| 2026-05-06 19:07 | 35.39374 | 25.47508 | 4121 ft | 189 kts | 214° |
| 2026-05-06 19:07 | 35.38280 | 25.46637 | 3909 ft | 186 kts | 214° |
| 2026-05-06 19:08 | 35.37204 | 25.45780 | 3708 ft | 183 kts | 214° |
| 2026-05-06 19:08 | 35.36212 | 25.44835 | 3494 ft | 180 kts | 237° |
| 2026-05-06 19:08 | 35.35675 | 25.43480 | 3344 ft | 176 kts | 247° |
| 2026-05-06 19:08 | 35.35158 | 25.42118 | 3145 ft | 176 kts | 246° |
| 2026-05-06 19:09 | 35.34635 | 25.40757 | 2963 ft | 179 kts | 246° |
| 2026-05-06 19:09 | 35.34103 | 25.39374 | 2767 ft | 179 kts | 246° |
| 2026-05-06 19:09 | 35.33752 | 25.38461 | 2651 ft | 178 kts | 246° |
| 2026-05-06 19:09 | 35.33225 | 25.37094 | 2459 ft | 177 kts | 246° |
| 2026-05-06 19:10 | 35.32974 | 25.35689 | 2305 ft | 165 kts | 275° |
| 2026-05-06 19:10 | 35.33071 | 25.33817 | 2188 ft | 166 kts | 272° |
| 2026-05-06 19:10 | 35.33100 | 25.32869 | 2142 ft | 164 kts | 270° |
| 2026-05-06 19:10 | 35.33104 | 25.31488 | 2069 ft | 161 kts | 272° |
| 2026-05-06 19:11 | 35.33162 | 25.30119 | 2028 ft | 162 kts | 273° |
| 2026-05-06 19:11 | 35.33244 | 25.28736 | 1892 ft | 159 kts | 274° |
| 2026-05-06 19:11 | 35.33332 | 25.27390 | 1654 ft | 155 kts | 274° |
| 2026-05-06 19:11 | 35.33419 | 25.26112 | 1412 ft | 147 kts | 274° |
| 2026-05-06 19:12 | 35.33504 | 25.24876 | 1201 ft | 146 kts | 274° |
| 2026-05-06 19:12 | 35.33589 | 25.23624 | 981 ft | 148 kts | 274° |
| 2026-05-06 19:12 | 35.33676 | 25.22363 | 751 ft | 148 kts | 274° |
| 2026-05-06 19:12 | 35.33759 | 25.21250 | 488 ft | 147 kts | 274° |
| 2026-05-06 19:13 | 35.33836 | 25.20039 | 301 ft | 145 kts | 274° |
| 2026-05-06 19:13 | 35.33921 | 25.18807 | 114 ft | 144 kts | 274° |
| 2026-05-06 19:13 | 35.33993 | 25.17754 | 91 ft | 95 kts | 275° |
| 2026-05-06 19:13 | 35.34024 | 25.17216 | 83 ft | 31 kts | 263° |
| 2026-05-06 19:14 | 35.33997 | 25.17115 | 86 ft | 11 kts | 246° |
| 2026-05-06 19:14 | 35.33951 | 25.17059 | 81 ft | 6 kts | 156° |
| 2026-05-06 19:14 | 35.33946 | 25.17070 | 83 ft | 0 kts | 105° |
| 2026-05-06 19:14 | 35.33945 | 25.17072 | 83 ft | 1 kts | 105° |
| 2026-05-06 19:15 | 35.33941 | 25.17094 | 84 ft | 5 kts | 102° |
| 2026-05-06 19:15 | 35.33934 | 25.17179 | 82 ft | 15 kts | 94° |
| 2026-05-06 19:15 | 35.33925 | 25.17318 | 85 ft | 17 kts | 95° |
| 2026-05-06 19:15 | 35.33916 | 25.17458 | 84 ft | 15 kts | 95° |
| 2026-05-06 19:16 | 35.33865 | 25.17502 | 86 ft | 10 kts | 184° |
| 2026-05-06 19:16 | 35.33805 | 25.17494 | 83 ft | 3 kts | 203° |
| 2026-05-06 19:16 | 35.33801 | 25.17486 | 83 ft | 0 kts | 250° |
| 2026-05-06 19:16 | 35.33803 | 25.17463 | 84 ft | 6 kts | 276° |
| 2026-05-06 19:17 | 35.33805 | 25.17427 | 83 ft | 2 kts | 274° |
| 2026-05-06 19:17 | 35.33806 | 25.17422 | 84 ft | 0 kts | 274° |